Startpagina
METAR-TAF:

METAR-TAF

Vliegvelden :

Caïro, Egypte

Luchthaven Caïro Internationaal

breedte: 30-08N, lengte: 031-24E, hoogte: 64 m

Actueel weer

Dit bericht is 29 minuten geleden gemaakt, om 12:30 UTC
Wind 13 kt uit het westen
Temperatuur 20°C
Vochtigheid 46%
Druk 1019 hPa
Zicht 10 km of meer
Verspreide wolken op 2500 ft

METAR: HECA 221230Z 28013KT 9999 SCT025 20/08 Q1019 NOSIG

Tijdstip: 14:59 (12:59 UTC)

Verwachting

Dit bericht is 1 uur en het 59 minuten geleden gemaakt, om 11:00 UTC
Verwachting geldig van 22 om 12 UTC tot 23 om 18 UTC
Wind 13 kt uit het westnoordwesten
Zicht 10 km of meer
Verspreide wolken op 2500 ft

TAF: HECA 221100Z 2212/2318 30013KT 9999 SCT025

Waarnemingen en weersverwachtingen van meer dan 4000 vliegvelden (METAR en TAF).

De beschikbare stations zijn de gele en rode punten op de kaart.

Ga met uw muis naar het station om de naam te zien.

Klik dan om waarnemingen en weersverwachtingen te zien.

kaart wijzigen: klik op de groene knoppen met een zwart kruis om in te zoomen, op de groene knop met een streepje om uit te zoomen of op de groene pijlen voor aangrenzende kaarten.


METAR-TAF: